Observation data for Levelland on 08/11/2019      Previous  Date  Next       Current Mesonet Observations  Soil Data  Daily Summary Page  Observations in Plain Language
KLD1 110500Z 12006KT 28/17 A3002 RMK A01 T02800165  RH  052%=      5-min Rain = 0
KLD1 110505Z 12007KT 28/17 A3002 RMK A01 T02780165  RH  053%=      5-min Rain = 0
KLD1 110510Z 12007KT 28/17 A3002 RMK A01 T02760165  RH  053%=      5-min Rain = 0
KLD1 110515Z 12006KT 28/17 A3002 RMK A01 T02750166  RH  054%=      5-min Rain = 0
KLD1 110520Z 12006KT 27/17 A3002 RMK A01 T02730166  RH  055%=      5-min Rain = 0
KLD1 110525Z 13006KT 27/17 A3002 RMK A01 T02730165  RH  054%=      5-min Rain = 0
KLD1 110530Z 14007KT 27/16 A3002 RMK A01 T02710164  RH  055%=      5-min Rain = 0
KLD1 110535Z 14007KT 27/16 A3002 RMK A01 T02710162  RH  054%=      5-min Rain = 0
KLD1 110540Z 15008KT 27/16 A3002 RMK A01 T02710162  RH  054%=      5-min Rain = 0
KLD1 110545Z 16008KT 27/16 A3003 RMK A01 T02730161  RH  053%=      5-min Rain = 0
KLD1 110550Z 18007KT 27/16 A3003 RMK A01 T02700162  RH  054%=      5-min Rain = 0
KLD1 110555Z 17007KT 27/16 A3003 RMK A01 T02680163  RH  055%=      5-min Rain = 0
KLD1 110600Z 17007KT 27/16 A3003 RMK A01 T02680163  RH  055%=      5-min Rain = 0
KLD1 110605Z 17007KT 27/16 A3003 RMK A01 T02670163  RH  055%=      5-min Rain = 0
KLD1 110610Z 17007KT 27/16 A3003 RMK A01 T02660163  RH  056%=      5-min Rain = 0
KLD1 110615Z 16006KT 26/16 A3003 RMK A01 T02640163  RH  056%=      5-min Rain = 0
KLD1 110620Z 16006KT 26/16 A3003 RMK A01 T02630164  RH  057%=      5-min Rain = 0
KLD1 110625Z 16006KT 26/16 A3003 RMK A01 T02610164  RH  058%=      5-min Rain = 0
KLD1 110630Z 16006KT 26/16 A3003 RMK A01 T02600164  RH  058%=      5-min Rain = 0
KLD1 110635Z 16006KT 26/17 A3003 RMK A01 T02580165  RH  059%=      5-min Rain = 0
KLD1 110640Z 15006KT 26/17 A3003 RMK A01 T02560165  RH  060%=      5-min Rain = 0
KLD1 110645Z 14007KT 26/17 A3002 RMK A01 T02550165  RH  061%=      5-min Rain = 0
KLD1 110650Z 15006KT 25/17 A3002 RMK A01 T02530165  RH  061%=      5-min Rain = 0
KLD1 110655Z 15006KT 25/17 A3003 RMK A01 T02520166  RH  062%=      5-min Rain = 0
KLD1 110700Z 15006KT 25/17 A3002 RMK A01 T02500166  RH  063%=      5-min Rain = 0
KLD1 110705Z 15006KT 25/17 A3002 RMK A01 T02480166  RH  063%=      5-min Rain = 0
KLD1 110710Z 15005KT 25/17 A3003 RMK A01 T02480165  RH  063%=      5-min Rain = 0
KLD1 110715Z 16005KT 25/17 A3003 RMK A01 T02480166  RH  063%=      5-min Rain = 0
KLD1 110720Z 16005KT 25/17 A3003 RMK A01 T02460167  RH  064%=      5-min Rain = 0
KLD1 110725Z 16006KT 25/17 A3003 RMK A01 T02450167  RH  065%=      5-min Rain = 0
KLD1 110730Z 16006KT 24/17 A3003 RMK A01 T02440167  RH  065%=      5-min Rain = 0
KLD1 110735Z 16006KT 24/17 A3003 RMK A01 T02440166  RH  065%=      5-min Rain = 0
KLD1 110740Z 17006KT 24/17 A3003 RMK A01 T02430167  RH  065%=      5-min Rain = 0
KLD1 110745Z 17006KT 24/17 A3003 RMK A01 T02440166  RH  065%=      5-min Rain = 0
KLD1 110750Z 18005KT 24/17 A3003 RMK A01 T02440165  RH  064%=      5-min Rain = 0
KLD1 110755Z 18006KT 24/17 A3003 RMK A01 T02430166  RH  065%=      5-min Rain = 0
KLD1 110800Z 18006KT 24/17 A3003 RMK A01 T02420166  RH  066%=      5-min Rain = 0
KLD1 110805Z 18006KT 24/17 A3003 RMK A01 T02420166  RH  065%=      5-min Rain = 0
KLD1 110810Z 18007KT 24/17 A3003 RMK A01 T02420166  RH  065%=      5-min Rain = 0
KLD1 110815Z 18007KT 24/17 A3003 RMK A01 T02420166  RH  065%=      5-min Rain = 0
KLD1 110820Z 18006KT 24/17 A3003 RMK A01 T02420165  RH  065%=      5-min Rain = 0
KLD1 110825Z 18006KT 24/17 A3003 RMK A01 T02420165  RH  065%=      5-min Rain = 0
KLD1 110830Z 18006KT 24/17 A3003 RMK A01 T02410165  RH  066%=      5-min Rain = 0
KLD1 110835Z 19006KT 24/17 A3003 RMK A01 T02390165  RH  066%=      5-min Rain = 0
KLD1 110840Z 20006KT 24/16 A3003 RMK A01 T02380164  RH  066%=      5-min Rain = 0
KLD1 110845Z 20006KT 24/16 A3003 RMK A01 T02370164  RH  067%=      5-min Rain = 0
KLD1 110850Z 20006KT 24/17 A3003 RMK A01 T02360165  RH  068%=      5-min Rain = 0
KLD1 110855Z 20006KT 24/17 A3004 RMK A01 T02350165  RH  068%=      5-min Rain = 0
KLD1 110900Z 20006KT 23/17 A3004 RMK A01 T02340165  RH  068%=      5-min Rain = 0
KLD1 110905Z 20006KT 23/17 A3004 RMK A01 T02330165  RH  069%=      5-min Rain = 0
KLD1 110910Z 20006KT 23/17 A3004 RMK A01 T02330165  RH  069%=      5-min Rain = 0
KLD1 110915Z 20006KT 23/17 A3004 RMK A01 T02320165  RH  069%=      5-min Rain = 0
KLD1 110920Z 19006KT 23/17 A3003 RMK A01 T02320165  RH  069%=      5-min Rain = 0
KLD1 110925Z 20006KT 23/16 A3003 RMK A01 T02310164  RH  069%=      5-min Rain = 0
KLD1 110930Z 20006KT 23/16 A3003 RMK A01 T02310163  RH  069%=      5-min Rain = 0
KLD1 110935Z 20006KT 23/16 A3003 RMK A01 T02320163  RH  068%=      5-min Rain = 0
KLD1 110940Z 20006KT 23/16 A3003 RMK A01 T02320162  RH  068%=      5-min Rain = 0
KLD1 110945Z 20006KT 23/16 A3004 RMK A01 T02330162  RH  067%=      5-min Rain = 0
KLD1 110950Z 20006KT 23/16 A3004 RMK A01 T02330161  RH  067%=      5-min Rain = 0
KLD1 110955Z 20005KT 23/16 A3004 RMK A01 T02330161  RH  067%=      5-min Rain = 0
KLD1 111000Z 20005KT 23/16 A3004 RMK A01 T02310161  RH  068%=      5-min Rain = 0
KLD1 111005Z 19005KT 23/16 A3004 RMK A01 T02290162  RH  069%=      5-min Rain = 0
KLD1 111010Z 19005KT 23/16 A3004 RMK A01 T02280162  RH  070%=      5-min Rain = 0
KLD1 111015Z 19004KT 23/16 A3004 RMK A01 T02260164  RH  071%=      5-min Rain = 0
KLD1 111020Z 19004KT 22/16 A3004 RMK A01 T02240164  RH  072%=      5-min Rain = 0
KLD1 111025Z 20005KT 22/16 A3004 RMK A01 T02230164  RH  073%=      5-min Rain = 0
KLD1 111030Z 20005KT 22/16 A3004 RMK A01 T02220163  RH  073%=      5-min Rain = 0
KLD1 111035Z 19006KT 22/16 A3003 RMK A01 T02230162  RH  072%=      5-min Rain = 0
KLD1 111040Z 19006KT 22/16 A3003 RMK A01 T02220162  RH  072%=      5-min Rain = 0
KLD1 111045Z 20006KT 22/16 A3003 RMK A01 T02230161  RH  072%=      5-min Rain = 0
KLD1 111050Z 20006KT 22/16 A3003 RMK A01 T02230161  RH  071%=      5-min Rain = 0
KLD1 111055Z 20006KT 22/16 A3003 RMK A01 T02240160  RH  071%=      5-min Rain = 0
KLD1 111100Z 20006KT 22/16 A3004 RMK A01 T02240160  RH  070%=      5-min Rain = 0
KLD1 111105Z 20006KT 22/16 A3004 RMK A01 T02240160  RH  070%=      5-min Rain = 0
KLD1 111110Z 19006KT 22/16 A3004 RMK A01 T02230160  RH  071%=      5-min Rain = 0
KLD1 111115Z 18005KT 22/16 A3004 RMK A01 T02210160  RH  072%=      5-min Rain = 0
KLD1 111120Z 18005KT 22/16 A3004 RMK A01 T02200160  RH  072%=      5-min Rain = 0
KLD1 111125Z 16004KT 22/16 A3004 RMK A01 T02180162  RH  074%=      5-min Rain = 0
KLD1 111130Z 15004KT 22/16 A3004 RMK A01 T02160162  RH  075%=      5-min Rain = 0
KLD1 111135Z 16005KT 21/16 A3004 RMK A01 T02130164  RH  077%=      5-min Rain = 0
KLD1 111140Z 16005KT 21/16 A3004 RMK A01 T02110164  RH  079%=      5-min Rain = 0
KLD1 111145Z 17005KT 21/16 A3004 RMK A01 T02100164  RH  079%=      5-min Rain = 0
KLD1 111150Z 17005KT 21/16 A3004 RMK A01 T02100164  RH  079%=      5-min Rain = 0
KLD1 111155Z 17005KT 21/16 A3005 RMK A01 T02090163  RH  079%=      5-min Rain = 0
KLD1 111200Z 17004KT 21/16 A3005 RMK A01 T02080164  RH  079%=      5-min Rain = 0
KLD1 111205Z 17005KT 21/16 A3005 RMK A01 T02080164  RH  080%=      5-min Rain = 0
KLD1 111210Z 17005KT 21/17 A3005 RMK A01 T02070165  RH  080%=      5-min Rain = 0
KLD1 111215Z 17006KT 21/17 A3005 RMK A01 T02070165  RH  081%=      5-min Rain = 0
KLD1 111220Z 18006KT 21/16 A3005 RMK A01 T02070164  RH  080%=      5-min Rain = 0
KLD1 111225Z 17006KT 21/16 A3006 RMK A01 T02090162  RH  078%=      5-min Rain = 0
KLD1 111230Z 16006KT 21/16 A3006 RMK A01 T02120161  RH  076%=      5-min Rain = 0
KLD1 111235Z 16006KT 22/16 A3006 RMK A01 T02150161  RH  074%=      5-min Rain = 0
KLD1 111240Z 15006KT 22/16 A3006 RMK A01 T02170162  RH  075%=      5-min Rain = 0
KLD1 111245Z 15006KT 22/16 A3006 RMK A01 T02180162  RH  074%=      5-min Rain = 0
KLD1 111250Z 16006KT 22/16 A3006 RMK A01 T02200162  RH  073%=      5-min Rain = 0
KLD1 111255Z 16005KT 22/16 A3006 RMK A01 T02220163  RH  073%=      5-min Rain = 0
KLD1 111300Z 16005KT 22/16 A3007 RMK A01 T02240164  RH  072%=      5-min Rain = 0
KLD1 111305Z 16005KT 23/17 A3007 RMK A01 T02260165  RH  072%=      5-min Rain = 0
KLD1 111310Z 16004KT 23/17 A3007 RMK A01 T02290165  RH  071%=      5-min Rain = 0
KLD1 111315Z 15004KT 23/17 A3007 RMK A01 T02320166  RH  070%=      5-min Rain = 0
KLD1 111320Z 16005KT 24/17 A3007 RMK A01 T02350167  RH  069%=      5-min Rain = 0
KLD1 111325Z 16004KT 24/17 A3007 RMK A01 T02370167  RH  068%=      5-min Rain = 0
KLD1 111330Z 17004KT 24/17 A3007 RMK A01 T02400168  RH  068%=      5-min Rain = 0
KLD1 111335Z 17005KT 24/17 A3008 RMK A01 T02430167  RH  066%=      5-min Rain = 0
KLD1 111340Z 16006KT 25/17 A3008 RMK A01 T02470166  RH  064%=      5-min Rain = 0
KLD1 111345Z 16006KT 25/17 A3008 RMK A01 T02490166  RH  063%=      5-min Rain = 0
KLD1 111350Z 17007KT 25/17 A3008 RMK A01 T02500166  RH  062%=      5-min Rain = 0
KLD1 111355Z 17007KT 26/17 A3008 RMK A01 T02550165  RH  061%=      5-min Rain = 0
KLD1 111400Z 18008KT 26/16 A3008 RMK A01 T02580161  RH  058%=      5-min Rain = 0
KLD1 111405Z 17009KT 26/16 A3008 RMK A01 T02610157  RH  055%=      5-min Rain = 0
KLD1 111410Z 17010KT 26/16 A3008 RMK A01 T02630156  RH  054%=      5-min Rain = 0
KLD1 111415Z 18009KT 26/16 A3008 RMK A01 T02640156  RH  054%=      5-min Rain = 0
KLD1 111420Z 18010KT 27/16 A3008 RMK A01 T02680156  RH  053%=      5-min Rain = 0
KLD1 111425Z 18009KT 27/16 A3008 RMK A01 T02690157  RH  052%=      5-min Rain = 0
KLD1 111430Z 18009KT 27/16 A3008 RMK A01 T02730158  RH  052%=      5-min Rain = 0
KLD1 111435Z 18010KT 28/16 A3008 RMK A01 T02760157  RH  051%=      5-min Rain = 0
KLD1 111440Z 18010KT 28/16 A3008 RMK A01 T02760157  RH  051%=      5-min Rain = 0
KLD1 111445Z 17010KT 28/16 A3008 RMK A01 T02780157  RH  050%=      5-min Rain = 0
KLD1 111450Z 17010KT 28/15 A3008 RMK A01 T02780154  RH  049%=      5-min Rain = 0
KLD1 111455Z 17009KT 28/16 A3008 RMK A01 T02790157  RH  050%=      5-min Rain = 0
KLD1 111500Z 17010KT 28/16 A3008 RMK A01 T02820158  RH  049%=      5-min Rain = 0
KLD1 111505Z 17011KT 28/16 A3009 RMK A01 T02820156  RH  048%=      5-min Rain = 0
KLD1 111510Z 18010KT 28/16 A3009 RMK A01 T02840158  RH  049%=      5-min Rain = 0
KLD1 111515Z 19011KT 28/16 A3009 RMK A01 T02840158  RH  049%=      5-min Rain = 0
KLD1 111520Z 18011KT 29/16 A3009 RMK A01 T02850159  RH  049%=      5-min Rain = 0
KLD1 111525Z 17011KT 29/16 A3009 RMK A01 T02860158  RH  048%=      5-min Rain = 0
KLD1 111530Z 17010G15KT 29/16 A3009 RMK A01 T02860158  RH  048%=      5-min Rain = 0
KLD1 111535Z 18011KT 29/16 A3009 RMK A01 T02880157  RH  047%=      5-min Rain = 0
KLD1 111540Z 18009KT 29/16 A3009 RMK A01 T02900159  RH  047%=      5-min Rain = 0
KLD1 111545Z 18010KT 29/16 A3009 RMK A01 T02920159  RH  047%=      5-min Rain = 0
KLD1 111550Z 18010G15KT 29/16 A301 RMK A01 T02920160  RH  047%=      5-min Rain = 0
KLD1 111555Z 17012KT 29/16 A3009 RMK A01 T02930159  RH  046%=      5-min Rain = 0
KLD1 111600Z 18012KT 29/16 A3009 RMK A01 T02940159  RH  046%=      5-min Rain = 0
KLD1 111605Z 17011KT 30/16 A301 RMK A01 T02950160  RH  046%=      5-min Rain = 0
KLD1 111610Z 17010KT 30/16 A3009 RMK A01 T02970162  RH  046%=      5-min Rain = 0
KLD1 111615Z 17011KT 30/16 A3009 RMK A01 T03000160  RH  045%=      5-min Rain = 0
KLD1 111620Z 18010KT 30/16 A301 RMK A01 T03000162  RH  045%=      5-min Rain = 0
KLD1 111625Z 17010KT 30/16 A3009 RMK A01 T03030162  RH  045%=      5-min Rain = 0
KLD1 111630Z 18010KT 31/16 A3009 RMK A01 T03050161  RH  044%=      5-min Rain = 0
KLD1 111635Z 19009KT 31/17 A3009 RMK A01 T03110165  RH  044%=      5-min Rain = 0
KLD1 111640Z 17010KT 32/17 A3009 RMK A01 T03160166  RH  043%=      5-min Rain = 0
KLD1 111645Z 17011KT 32/16 A3009 RMK A01 T03170161  RH  041%=      5-min Rain = 0
KLD1 111650Z 18010KT 32/16 A3009 RMK A01 T03190161  RH  041%=      5-min Rain = 0
KLD1 111655Z 17008KT 32/16 A3009 RMK A01 T03150163  RH  042%=      5-min Rain = 0
KLD1 111700Z 17007KT 31/16 A3009 RMK A01 T03090164  RH  044%=      5-min Rain = 0
KLD1 111705Z 16008KT 31/17 A3009 RMK A01 T03120165  RH  043%=      5-min Rain = 0
KLD1 111710Z 17008KT 32/16 A3009 RMK A01 T03150164  RH  042%=      5-min Rain = 0
KLD1 111715Z 18008KT 32/16 A3009 RMK A01 T03240164  RH  040%=      5-min Rain = 0
KLD1 111720Z 18009KT 32/16 A3009 RMK A01 T03180163  RH  041%=      5-min Rain = 0
KLD1 111725Z 18009KT 32/16 A3009 RMK A01 T03190164  RH  041%=      5-min Rain = 0
KLD1 111730Z 18007KT 32/16 A3009 RMK A01 T03210164  RH  041%=      5-min Rain = 0
KLD1 111735Z 16008KT 32/17 A3008 RMK A01 T03240166  RH  041%=      5-min Rain = 0
KLD1 111740Z 15009KT 33/17 A3008 RMK A01 T03260171  RH  042%=      5-min Rain = 0
KLD1 111745Z 16010KT 33/17 A3008 RMK A01 T03310166  RH  039%=      5-min Rain = 0
KLD1 111750Z 16009KT 34/17 A3008 RMK A01 T03350167  RH  039%=      5-min Rain = 0
KLD1 111755Z 15009KT 34/17 A3007 RMK A01 T03370165  RH  038%=      5-min Rain = 0
KLD1 111800Z 16011KT 34/16 A3007 RMK A01 T03360164  RH  038%=      5-min Rain = 0
KLD1 111805Z 15009KT 34/17 A3007 RMK A01 T03350165  RH  038%=      5-min Rain = 0
KLD1 111810Z 14008G13KT 34/16 A3007 RMK A01 T03350162  RH  037%=      5-min Rain = 0
KLD1 111815Z 16008G13KT 34/17 A3006 RMK A01 T03390165  RH  037%=      5-min Rain = 0
KLD1 111820Z 19009KT 34/16 A3006 RMK A01 T03400164  RH  037%=      5-min Rain = 0
KLD1 111825Z 19009KT 34/17 A3006 RMK A01 T03420165  RH  037%=      5-min Rain = 0
KLD1 111830Z 16008KT 34/17 A3006 RMK A01 T03440167  RH  037%=      5-min Rain = 0
KLD1 111835Z 15009KT 35/17 A3005 RMK A01 T03450166  RH  036%=      5-min Rain = 0
KLD1 111840Z 15009KT 35/16 A3005 RMK A01 T03460162  RH  035%=      5-min Rain = 0
KLD1 111845Z 16010KT 35/16 A3005 RMK A01 T03460164  RH  035%=      5-min Rain = 0
KLD1 111850Z 16010KT 35/16 A3005 RMK A01 T03450160  RH  035%=      5-min Rain = 0
KLD1 111855Z 14010KT 35/16 A3004 RMK A01 T03480159  RH  034%=      5-min Rain = 0
KLD1 111900Z 16008KT 35/16 A3004 RMK A01 T03480160  RH  034%=      5-min Rain = 0
KLD1 111905Z 17008G13KT 35/17 A3004 RMK A01 T03500166  RH  035%=      5-min Rain = 0
KLD1 111910Z 16010KT 35/16 A3004 RMK A01 T03530158  RH  033%=      5-min Rain = 0
KLD1 111915Z 17009KT 35/16 A3004 RMK A01 T03510164  RH  035%=      5-min Rain = 0
KLD1 111920Z 15009G15KT 35/16 A3003 RMK A01 T03520156  RH  033%=      5-min Rain = 0
KLD1 111925Z 15009KT 35/16 A3003 RMK A01 T03540156  RH  032%=      5-min Rain = 0
KLD1 111930Z 14007G12KT 35/16 A3003 RMK A01 T03520156  RH  033%=      5-min Rain = 0
KLD1 111935Z 14009G14KT 35/16 A3003 RMK A01 T03530155  RH  032%=      5-min Rain = 0
KLD1 111940Z 14009G14KT 36/15 A3002 RMK A01 T03550152  RH  031%=      5-min Rain = 0
KLD1 111945Z 14008KT 36/15 A3002 RMK A01 T03580152  RH  031%=      5-min Rain = 0
KLD1 111950Z 16009KT 36/16 A3002 RMK A01 T03590159  RH  032%=      5-min Rain = 0
KLD1 111955Z 15009KT 36/16 A3002 RMK A01 T03590157  RH  032%=      5-min Rain = 0
KLD1 112000Z 13008G13KT 36/15 A3002 RMK A01 T03570146  RH  030%=      5-min Rain = 0
KLD1 112005Z 15011KT 36/15 A3001 RMK A01 T03560150  RH  031%=      5-min Rain = 0
KLD1 112010Z 14009G14KT 36/15 A3001 RMK A01 T03590152  RH  031%=      5-min Rain = 0
KLD1 112015Z 14009KT 36/15 A3001 RMK A01 T03580148  RH  030%=      5-min Rain = 0
KLD1 112020Z 16008KT 36/15 A30 RMK A01 T03580153  RH  031%=      5-min Rain = 0
KLD1 112025Z 13010KT 36/15 A30 RMK A01 T03620147  RH  029%=      5-min Rain = 0
KLD1 112030Z 12008KT 36/14 A30 RMK A01 T03610142  RH  028%=      5-min Rain = 0
KLD1 112035Z 13012KT 36/15 A30 RMK A01 T03630147  RH  029%=      5-min Rain = 0
KLD1 112040Z 13010KT 36/15 A2999 RMK A01 T03600145  RH  029%=      5-min Rain = 0
KLD1 112045Z 15010G16KT 36/16 A2999 RMK A01 T03640156  RH  031%=      5-min Rain = 0
KLD1 112050Z 14008KT 36/14 A2999 RMK A01 T03610144  RH  029%=      5-min Rain = 0
KLD1 112055Z 14011G17KT 36/15 A2999 RMK A01 T03610148  RH  030%=      5-min Rain = 0
KLD1 112100Z 16009KT 36/15 A2999 RMK A01 T03600149  RH  030%=      5-min Rain = 0
KLD1 112105Z 15010KT 36/14 A2999 RMK A01 T03610144  RH  029%=      5-min Rain = 0
KLD1 112110Z 14010G15KT 36/14 A2998 RMK A01 T03590137  RH  028%=      5-min Rain = 0
KLD1 112115Z 16010G15KT 36/15 A2998 RMK A01 T03610145  RH  029%=      5-min Rain = 0
KLD1 112120Z 14012KT 36/14 A2998 RMK A01 T03620143  RH  028%=      5-min Rain = 0
KLD1 112125Z 15011G16KT 36/14 A2998 RMK A01 T03630143  RH  028%=      5-min Rain = 0
KLD1 112130Z 15009KT 36/15 A2998 RMK A01 T03610148  RH  029%=      5-min Rain = 0
KLD1 112135Z 16009KT 36/15 A2998 RMK A01 T03600147  RH  029%=      5-min Rain = 0
KLD1 112140Z 15009G14KT 36/15 A2998 RMK A01 T03620146  RH  029%=      5-min Rain = 0
KLD1 112145Z 15012KT 36/15 A2998 RMK A01 T03640146  RH  029%=      5-min Rain = 0
KLD1 112150Z 16008G15KT 36/14 A2998 RMK A01 T03630144  RH  028%=      5-min Rain = 0
KLD1 112155Z 15012G17KT 36/14 A2998 RMK A01 T03630144  RH  028%=      5-min Rain = 0
KLD1 112200Z 16014KT 36/14 A2998 RMK A01 T03590144  RH  029%=      5-min Rain = 0
KLD1 112205Z 15012G18KT 36/14 A2998 RMK A01 T03570142  RH  029%=      5-min Rain = 0
KLD1 112210Z 15009KT 36/14 A2998 RMK A01 T03590144  RH  029%=      5-min Rain = 0
KLD1 112215Z 15009KT 36/14 A2997 RMK A01 T03610141  RH  028%=      5-min Rain = 0
KLD1 112220Z 15013G19KT 36/14 A2997 RMK A01 T03610142  RH  028%=      5-min Rain = 0
KLD1 112225Z 14012KT 36/14 A2997 RMK A01 T03590140  RH  028%=      5-min Rain = 0
KLD1 112230Z 14010KT 36/14 A2997 RMK A01 T03600137  RH  028%=      5-min Rain = 0
KLD1 112235Z 13011G16KT 36/14 A2997 RMK A01 T03620138  RH  027%=      5-min Rain = 0
KLD1 112240Z 14011G17KT 36/14 A2996 RMK A01 T03610139  RH  028%=      5-min Rain = 0
KLD1 112245Z 14012G19KT 36/14 A2996 RMK A01 T03590144  RH  029%=      5-min Rain = 0
KLD1 112250Z 15010G16KT 36/14 A2996 RMK A01 T03580143  RH  029%=      5-min Rain = 0
KLD1 112255Z 15009G15KT 36/15 A2996 RMK A01 T03570152  RH  031%=      5-min Rain = 0
KLD1 112300Z 15010KT 36/15 A2996 RMK A01 T03570145  RH  029%=      5-min Rain = 0
KLD1 112305Z 16009KT 36/15 A2996 RMK A01 T03560149  RH  030%=      5-min Rain = 0
KLD1 112310Z 14012G18KT 36/15 A2996 RMK A01 T03560146  RH  030%=      5-min Rain = 0
KLD1 112315Z 15012G17KT 35/14 A2996 RMK A01 T03540143  RH  030%=      5-min Rain = 0
KLD1 112320Z 15012G17KT 35/15 A2995 RMK A01 T03530146  RH  030%=      5-min Rain = 0
KLD1 112325Z 16012KT 35/14 A2995 RMK A01 T03520143  RH  030%=      5-min Rain = 0
KLD1 112330Z 15012G17KT 35/14 A2995 RMK A01 T03500141  RH  030%=      5-min Rain = 0
KLD1 112335Z 16013KT 35/14 A2995 RMK A01 T03490140  RH  030%=      5-min Rain = 0
KLD1 112340Z 16014KT 35/14 A2995 RMK A01 T03480138  RH  030%=      5-min Rain = 0
KLD1 112345Z 15013KT 35/14 A2995 RMK A01 T03480136  RH  029%=      5-min Rain = 0
KLD1 112350Z 16012G19KT 35/14 A2995 RMK A01 T03470135  RH  029%=      5-min Rain = 0
KLD1 112355Z 16009KT 35/14 A2996 RMK A01 T03470138  RH  030%=      5-min Rain = 0
KLD1 120000Z 16009KT 35/14 A2996 RMK A01 T03470141  RH  030%=      5-min Rain = 0
KLD1 120005Z 17011G16KT 35/14 A2996 RMK A01 T03450139  RH  030%=      5-min Rain = 0
KLD1 120010Z 16010KT 34/14 A2996 RMK A01 T03440137  RH  030%=      5-min Rain = 0
KLD1 120015Z 16009KT 34/14 A2996 RMK A01 T03440140  RH  031%=      5-min Rain = 0
KLD1 120020Z 15011KT 34/13 A2996 RMK A01 T03430134  RH  030%=      5-min Rain = 0
KLD1 120025Z 16008KT 34/14 A2996 RMK A01 T03400136  RH  030%=      5-min Rain = 0
KLD1 120030Z 16007KT 34/14 A2996 RMK A01 T03390137  RH  031%=      5-min Rain = 0
KLD1 120035Z 16008KT 33/14 A2997 RMK A01 T03340137  RH  032%=      5-min Rain = 0
KLD1 120040Z 15008KT 33/14 A2997 RMK A01 T03280139  RH  033%=      5-min Rain = 0
KLD1 120045Z 15007KT 32/14 A2997 RMK A01 T03230142  RH  035%=      5-min Rain = 0
KLD1 120050Z 15006KT 32/15 A2997 RMK A01 T03180146  RH  037%=      5-min Rain = 0
KLD1 120055Z 14005KT 31/15 A2997 RMK A01 T03130146  RH  038%=      5-min Rain = 0
KLD1 120100Z 14005KT 31/15 A2997 RMK A01 T03120146  RH  038%=      5-min Rain = 0
KLD1 120105Z 13005KT 31/15 A2997 RMK A01 T03080149  RH  040%=      5-min Rain = 0
KLD1 120110Z 13005KT 31/14 A2997 RMK A01 T03090144  RH  038%=      5-min Rain = 0
KLD1 120115Z 13006KT 31/14 A2997 RMK A01 T03100142  RH  038%=      5-min Rain = 0
KLD1 120120Z 14005KT 31/14 A2998 RMK A01 T03090143  RH  038%=      5-min Rain = 0
KLD1 120125Z 26008G17KT 30/15 A2999 RMK A01 T02960154  RH  044%=      5-min Rain = 0
KLD1 120130Z 30011KT 29/14 A30 RMK A01 T02940143  RH  041%=      5-min Rain = 0
KLD1 120135Z 30019G26KT 29/14 A30 RMK A01 T02890143  RH  043%=      5-min Rain = 0
KLD1 120140Z 30018G25KT 28/14 A3001 RMK A01 T02820144  RH  045%=      5-min Rain = 0
KLD1 120145Z 31017G22KT 28/15 A3002 RMK A01 T02770147  RH  047%=      5-min Rain = 0
KLD1 120150Z 31013G18KT 27/15 A3002 RMK A01 T02730148  RH  048%=      5-min Rain = 0
KLD1 120155Z 31015G20KT 27/15 A3002 RMK A01 T02710149  RH  050%=      5-min Rain = 0
KLD1 120200Z 31014G19KT 27/15 A3002 RMK A01 T02660150  RH  051%=      5-min Rain = 0
KLD1 120205Z 31012KT 26/15 A3002 RMK A01 T02620149  RH  052%=      5-min Rain = 0
KLD1 120210Z 31015KT 26/15 A3002 RMK A01 T02610146  RH  051%=      5-min Rain = 0
KLD1 120215Z 31012KT 26/15 A3002 RMK A01 T02600145  RH  051%=      5-min Rain = 0
KLD1 120220Z 32012KT 26/15 A3002 RMK A01 T02590145  RH  052%=      5-min Rain = 0
KLD1 120225Z 32011KT 26/15 A3003 RMK A01 T02580145  RH  052%=      5-min Rain = 0
KLD1 120230Z 32013KT 26/15 A3003 RMK A01 T02560147  RH  053%=      5-min Rain = 0
KLD1 120235Z 33012KT 25/15 A3003 RMK A01 T02540149  RH  055%=      5-min Rain = 0
KLD1 120240Z 33011G16KT 25/15 A3003 RMK A01 T02520149  RH  055%=      5-min Rain = 0
KLD1 120245Z 34012G18KT 25/15 A3003 RMK A01 T02520148  RH  055%=      5-min Rain = 0
KLD1 120250Z 34013G18KT 25/15 A3003 RMK A01 T02540147  RH  054%=      5-min Rain = 0
KLD1 120255Z 34013G18KT 25/15 A3003 RMK A01 T02530145  RH  053%=      5-min Rain = 0
KLD1 120300Z 34012G17KT 25/14 A3003 RMK A01 T02540143  RH  052%=      5-min Rain = 0
KLD1 120305Z 35011KT 25/14 A3003 RMK A01 T02540141  RH  052%=      5-min Rain = 0
KLD1 120310Z 35011KT 25/14 A3003 RMK A01 T02540138  RH  051%=      5-min Rain = 0
KLD1 120315Z 35010KT 25/14 A3003 RMK A01 T02530137  RH  051%=      5-min Rain = 0
KLD1 120320Z 36009KT 25/14 A3003 RMK A01 T02510137  RH  051%=      5-min Rain = 0
KLD1 120325Z 36008KT 25/14 A3003 RMK A01 T02510136  RH  051%=      5-min Rain = 0
KLD1 120330Z 36007KT 25/14 A3003 RMK A01 T02510136  RH  051%=      5-min Rain = 0
KLD1 120335Z 02007KT 25/14 A3003 RMK A01 T02490137  RH  052%=      5-min Rain = 0
KLD1 120340Z 02007KT 25/14 A3003 RMK A01 T02480138  RH  052%=      5-min Rain = 0
KLD1 120345Z 03006KT 25/14 A3003 RMK A01 T02460139  RH  053%=      5-min Rain = 0
KLD1 120350Z 04006KT 24/14 A3002 RMK A01 T02440140  RH  054%=      5-min Rain = 0
KLD1 120355Z 04006KT 24/14 A3002 RMK A01 T02430140  RH  055%=      5-min Rain = 0
KLD1 120400Z 03005KT 24/14 A3003 RMK A01 T02420140  RH  055%=      5-min Rain = 0
KLD1 120405Z 03004KT 24/14 A3003 RMK A01 T02410140  RH  055%=      5-min Rain = 0
KLD1 120410Z 04001KT 24/14 A3003 RMK A01 T02390140  RH  056%=      5-min Rain = 0
KLD1 120415Z 05001KT 24/14 A3003 RMK A01 T02390139  RH  056%=      5-min Rain = 0
KLD1 120420Z 03003KT 24/14 A3003 RMK A01 T02390140  RH  056%=      5-min Rain = 0
KLD1 120425Z 05003KT 24/14 A3002 RMK A01 T02360140  RH  057%=      5-min Rain = 0
KLD1 120430Z 08004KT 23/14 A3002 RMK A01 T02330141  RH  059%=      5-min Rain = 0
KLD1 120435Z 07005KT 23/14 A3002 RMK A01 T02300143  RH  060%=      5-min Rain = 0
KLD1 120440Z 09005KT 23/14 A3002 RMK A01 T02270144  RH  062%=      5-min Rain = 0
KLD1 120445Z 08005KT 23/14 A3002 RMK A01 T02270144  RH  062%=      5-min Rain = 0
KLD1 120450Z 09006KT 23/14 A3002 RMK A01 T02260144  RH  063%=      5-min Rain = 0
KLD1 120455Z 10005KT 23/14 A3002 RMK A01 T02260144  RH  062%=      5-min Rain = 0

Page generated in 0.0163 seconds.